Time;durP1;ratioP1;P1;durP2;ratioP2;P2;SDS_P1;SDS_P2;PMS_P1;PMS_P2;Temp;Humidity;BMP_temperature;BMP_pressure;BME280_temperature;BME280_humidity;BME280_pressure;Samples;Min_cycle;Max_cycle;Signal;HPM_P1;HPM_P2
2023/09/13 00:01:00;;;;;;;7.20;5.07;;;18.90;99.90;;;;;;20517360;28;20058;-45
2023/09/13 00:11:05;;;;;;;6.38;5.28;;;18.80;99.90;;;;;;20518209;28;20047;-45
2023/09/13 00:21:09;;;;;;;7.78;5.85;;;18.80;99.90;;;;;;20518522;28;20034;-44
2023/09/13 00:31:10;;;;;;;7.57;5.72;;;18.80;99.90;;;;;;20517102;28;20051;-41
2023/09/13 00:41:11;;;;;;;9.45;6.40;;;18.80;99.90;;;;;;20517415;28;20123;-42
2023/09/13 00:51:11;;;;;;;7.20;6.32;;;18.70;99.90;;;;;;20514810;28;20101;-42
2023/09/13 01:01:13;;;;;;;8.23;5.90;;;18.60;99.90;;;;;;20514549;28;20040;-42
2023/09/13 01:11:13;;;;;;;7.97;6.38;;;18.40;99.90;;;;;;20514871;28;20051;-42
2023/09/13 01:21:32;;;;;;;7.65;5.93;;;18.30;99.90;;;;;;20514831;28;20062;-41
2023/09/13 01:31:33;;;;;;;9.88;7.03;;;18.30;99.90;;;;;;20513170;28;20047;-42
2023/09/13 01:41:45;;;;;;;7.00;5.78;;;18.30;99.90;;;;;;20510305;28;20054;-42
2023/09/13 01:51:46;;;;;;;9.18;7.18;;;18.30;99.90;;;;;;20513043;28;20144;-42
2023/09/13 02:01:46;;;;;;;8.48;5.88;;;18.30;99.90;;;;;;20509722;28;20038;-42
2023/09/13 02:11:47;;;;;;;10.40;7.85;;;18.40;99.90;;;;;;20509192;28;20055;-41
2023/09/13 02:21:48;;;;;;;10.15;7.13;;;18.40;99.90;;;;;;20506936;28;20061;-42
2023/09/13 02:31:49;;;;;;;16.88;11.82;;;18.40;99.90;;;;;;20508922;28;20078;-42
2023/09/13 02:41:49;;;;;;;13.57;10.27;;;18.50;99.90;;;;;;20508388;28;20067;-42
2023/09/13 02:51:53;;;;;;;14.38;10.60;;;18.40;99.90;;;;;;20508902;28;20058;-42
2023/09/13 03:01:54;;;;;;;13.57;10.65;;;18.30;99.90;;;;;;20508024;28;20035;-42
2023/09/13 03:11:55;;;;;;;15.55;11.10;;;18.20;99.90;;;;;;20506722;28;20098;-42
2023/09/13 03:21:55;;;;;;;15.52;11.85;;;18.20;99.90;;;;;;20514520;28;20035;-42
2023/09/13 03:31:56;;;;;;;13.80;10.73;;;18.20;99.90;;;;;;20522920;28;20049;-42
2023/09/13 03:41:56;;;;;;;16.70;12.77;;;18.20;99.90;;;;;;20520849;28;20129;-42
2023/09/13 03:51:58;;;;;;;17.05;12.70;;;18.30;99.90;;;;;;20521945;28;20096;-42
2023/09/13 04:01:59;;;;;;;18.00;13.15;;;18.40;99.90;;;;;;20519342;28;20124;-42
2023/09/13 04:11:59;;;;;;;25.17;17.35;;;18.40;99.90;;;;;;20519919;28;20049;-42
2023/09/13 04:22:00;;;;;;;27.65;18.63;;;18.50;99.90;;;;;;20518149;28;20523;-42
2023/09/13 04:32:00;;;;;;;34.42;21.85;;;18.50;99.90;;;;;;20516960;28;20067;-42
2023/09/13 04:42:01;;;;;;;43.60;24.77;;;18.60;99.90;;;;;;20516921;28;20499;-42
2023/09/13 04:52:02;;;;;;;52.58;30.80;;;18.60;99.90;;;;;;20514825;28;20495;-42
2023/09/13 05:02:03;;;;;;;49.40;30.35;;;18.60;99.90;;;;;;20514964;28;20042;-41
2023/09/13 05:12:04;;;;;;;45.10;28.25;;;18.50;99.90;;;;;;20514362;28;20135;-42
2023/09/13 05:22:05;;;;;;;29.02;18.30;;;18.50;99.90;;;;;;20512727;28;20045;-42
2023/09/13 05:32:05;;;;;;;4.35;1.00;;;18.60;99.90;;;;;;20515121;28;20089;-41
2023/09/13 05:42:06;;;;;;;3.80;0.70;;;18.10;99.90;;;;;;20510551;28;20043;-41
2023/09/13 05:52:06;;;;;;;1.92;0.43;;;17.50;93.00;;;;;;20512633;28;20133;-41
2023/09/13 06:02:07;;;;;;;2.08;0.60;;;17.40;92.50;;;;;;20701666;23;20049;-43
2023/09/13 06:12:08;;;;;;;2.28;0.57;;;17.40;63.30;;;;;;20707592;28;20557;-44
2023/09/13 06:22:08;;;;;;;4.37;0.63;;;17.30;40.70;;;;;;20707944;28;20045;-43
2023/09/13 06:32:09;;;;;;;3.55;0.70;;;17.20;18.20;;;;;;20706996;28;20972;-45
2023/09/13 06:42:10;;;;;;;3.65;1.33;;;17.10;16.70;;;;;;20705718;28;20464;-44
2023/09/13 06:52:11;;;;;;;3.22;1.10;;;17.10;8.40;;;;;;20707629;28;20046;-43
2023/09/13 07:02:11;;;;;;;4.18;1.25;;;17.00;1.00;;;;;;20681051;28;20137;-44
2023/09/13 07:12:12;;;;;;;4.13;1.45;;;17.10;1.00;;;;;;20677573;28;20488;-44
2023/09/13 07:22:13;;;;;;;4.25;1.20;;;16.90;1.00;;;;;;20678605;28;20042;-43
2023/09/13 07:32:13;;;;;;;2.45;0.98;;;16.90;1.00;;;;;;20676479;28;20100;-44
2023/09/13 07:42:14;;;;;;;3.35;1.30;;;17.00;1.00;;;;;;20674673;28;20053;-44
2023/09/13 07:52:14;;;;;;;2.85;0.90;;;17.10;1.00;;;;;;20678590;28;20065;-44
2023/09/13 08:02:15;;;;;;;2.92;0.80;;;17.20;1.00;;;;;;20675086;28;20069;-45
2023/09/13 08:12:16;;;;;;;2.70;1.00;;;17.50;1.00;;;;;;20674711;28;20162;-44
2023/09/13 08:22:16;;;;;;;2.90;1.20;;;17.90;1.00;;;;;;20674190;28;20129;-44
2023/09/13 08:32:17;;;;;;;3.13;1.03;;;18.10;1.00;;;;;;20669671;28;20089;-43
2023/09/13 08:42:17;;;;;;;3.63;1.10;;;18.10;1.00;;;;;;20672854;28;20429;-44
2023/09/13 08:52:19;;;;;;;2.67;1.10;;;18.30;1.00;;;;;;20672284;28;20076;-44
2023/09/13 09:02:22;;;;;;;5.88;1.50;;;18.50;1.00;;;;;;20671793;28;20140;-44
2023/09/13 09:12:24;;;;;;;4.50;1.30;;;18.50;1.00;;;;;;20669404;28;20121;-44
2023/09/13 09:22:26;;;;;;;3.38;1.17;;;18.90;1.00;;;;;;20670829;28;20044;-44
2023/09/13 09:32:28;;;;;;;5.30;1.35;;;19.10;1.00;;;;;;20667672;28;20033;-44
2023/09/13 09:42:29;;;;;;;5.35;1.65;;;19.10;1.00;;;;;;20668391;28;20042;-44
2023/09/13 09:52:29;;;;;;;5.65;1.50;;;19.70;1.00;;;;;;20668356;28;20046;-44
2023/09/13 10:02:31;;;;;;;3.75;1.45;;;19.80;1.00;;;;;;20666894;28;20054;-43
2023/09/13 10:12:43;;;;;;;3.60;0.75;;;19.20;1.00;;;;;;20664381;28;20564;-44
2023/09/13 10:22:47;;;;;;;5.03;1.27;;;18.90;1.00;;;;;;20667780;28;20042;-44
2023/09/13 10:32:52;;;;;;;3.10;0.75;;;19.30;1.00;;;;;;20661410;28;20042;-44
2023/09/13 10:42:53;;;;;;;4.55;1.65;;;19.40;1.00;;;;;;20664406;28;20045;-43
2023/09/13 10:52:54;;;;;;;6.15;1.80;;;18.90;1.00;;;;;;20663570;28;20060;-43
2023/09/13 11:02:55;;;;;;;4.10;1.77;;;18.30;1.00;;;;;;20664441;28;20042;-44
2023/09/13 11:12:55;;;;;;;4.45;1.35;;;17.90;1.00;;;;;;20661438;28;20430;-43
2023/09/13 11:23:09;;;;;;;5.03;2.22;;;17.90;1.00;;;;;;20663864;28;20089;-44
2023/09/13 11:33:09;;;;;;;5.35;2.03;;;18.20;1.00;;;;;;20663149;28;20058;-44
2023/09/13 11:43:11;;;;;;;3.85;2.20;;;18.30;1.00;;;;;;20668248;28;20077;-43
2023/09/13 11:53:20;;;;;;;5.30;2.60;;;18.90;1.00;;;;;;20676831;28;20066;-43
2023/09/13 12:03:21;;;;;;;5.90;2.20;;;19.30;1.00;;;;;;20676293;28;20096;-43
2023/09/13 12:13:39;;;;;;;6.03;3.08;;;19.70;1.00;;;;;;20673551;28;20516;-43
2023/09/13 12:23:48;;;;;;;8.20;3.05;;;20.10;1.00;;;;;;20671635;28;20584;-43
2023/09/13 12:33:51;;;;;;;5.78;2.90;;;20.30;1.00;;;;;;20674084;28;20089;-44
2023/09/13 12:43:52;;;;;;;5.47;2.45;;;20.80;1.00;;;;;;20673362;28;20543;-43
2023/09/13 12:53:53;;;;;;;7.07;2.60;;;20.80;1.00;;;;;;20669430;28;22026;-43
2023/09/13 13:03:59;;;;;;;4.57;2.40;;;21.00;1.00;;;;;;20671140;28;20078;-43
2023/09/13 13:13:59;;;;;;;4.70;2.20;;;21.20;1.00;;;;;;20670379;28;20045;-43
2023/09/13 13:24:00;;;;;;;5.03;2.57;;;21.30;1.00;;;;;;20667368;28;20050;-43
2023/09/13 13:34:00;;;;;;;7.72;2.30;;;21.10;1.00;;;;;;20669893;28;20045;-43
2023/09/13 13:44:01;;;;;;;5.82;2.50;;;21.00;1.00;;;;;;20667277;28;20079;-43
2023/09/13 13:54:02;;;;;;;6.35;2.47;;;21.30;1.00;;;;;;20667130;28;20049;-43
2023/09/13 14:04:03;;;;;;;6.50;2.47;;;21.10;1.00;;;;;;20667443;28;20041;-43
2023/09/13 14:14:03;;;;;;;6.40;2.38;;;21.10;1.00;;;;;;20666881;28;20069;-44
2023/09/13 14:24:05;;;;;;;4.38;1.98;;;21.00;1.00;;;;;;20663613;28;20088;-43
2023/09/13 14:34:06;;;;;;;6.18;2.70;;;20.90;1.00;;;;;;20665246;28;20050;-43
2023/09/13 14:44:06;;;;;;;5.10;2.25;;;20.80;1.00;;;;;;20664028;28;20176;-43
2023/09/13 14:54:07;;;;;;;5.05;2.30;;;20.50;1.00;;;;;;20661604;28;20039;-43
2023/09/13 15:04:09;;;;;;;4.50;2.08;;;20.30;1.00;;;;;;20665181;28;20042;-43
2023/09/13 15:14:10;;;;;;;6.80;2.17;;;20.30;1.00;;;;;;20665959;28;20158;-43
2023/09/13 15:24:11;;;;;;;8.70;2.20;;;20.20;1.00;;;;;;20675690;28;20034;-43
2023/09/13 15:34:11;;;;;;;5.03;2.22;;;20.00;1.00;;;;;;20678697;28;20045;-43
2023/09/13 15:44:12;;;;;;;5.57;2.05;;;19.90;1.00;;;;;;20678371;28;20310;-43
2023/09/13 15:54:13;;;;;;;22.50;13.23;;;19.80;1.00;;;;;;20673384;28;20325;-43
2023/09/13 16:04:14;;;;;;;4.75;2.00;;;19.70;1.00;;;;;;20674248;28;20116;-43
2023/09/13 16:14:31;;;;;;;5.53;1.33;;;19.40;1.00;;;;;;20673587;28;20046;-43
2023/09/13 16:24:32;;;;;;;4.47;1.38;;;19.40;1.00;;;;;;20672613;28;20808;-43
2023/09/13 16:34:32;;;;;;;3.80;1.10;;;19.10;1.00;;;;;;20674365;28;20057;-43
2023/09/13 16:44:33;;;;;;;3.70;1.30;;;18.90;1.00;;;;;;20671232;28;20045;-42
2023/09/13 16:54:34;;;;;;;5.65;2.42;;;18.50;1.00;;;;;;20671679;28;20057;-43
2023/09/13 17:04:34;;;;;;;6.15;2.13;;;18.30;1.00;;;;;;20672852;28;20038;-43
2023/09/13 17:14:36;;;;;;;3.78;1.20;;;18.30;1.00;;;;;;20670310;28;20099;-43
2023/09/13 17:24:37;;;;;;;3.08;1.23;;;18.10;1.00;;;;;;20669193;28;20571;-42
2023/09/13 17:34:37;;;;;;;3.38;1.27;;;17.90;1.00;;;;;;20669809;28;20042;-42
2023/09/13 17:44:38;;;;;;;4.45;1.27;;;17.70;1.00;;;;;;20666462;28;20039;-43
2023/09/13 17:54:38;;;;;;;5.03;1.58;;;17.60;1.00;;;;;;20666114;28;20042;-42
2023/09/13 18:04:39;;;;;;;4.07;1.20;;;17.60;1.00;;;;;;20668991;28;20072;-42
2023/09/13 18:14:39;;;;;;;4.00;1.40;;;17.60;1.00;;;;;;20665352;28;20053;-42
2023/09/13 18:24:41;;;;;;;4.75;1.20;;;17.60;1.00;;;;;;20665962;28;20034;-42
2023/09/13 18:34:41;;;;;;;4.72;1.30;;;17.50;1.00;;;;;;20665909;28;20046;-42
2023/09/13 18:44:42;;;;;;;4.40;1.07;;;17.50;1.00;;;;;;20665089;28;20034;-43
2023/09/13 18:54:43;;;;;;;3.97;1.25;;;17.30;1.00;;;;;;20674394;28;20559;-42
2023/09/13 19:04:43;;;;;;;5.53;1.27;;;17.30;1.00;;;;;;20678936;28;20093;-42
2023/09/13 19:14:44;;;;;;;5.10;1.63;;;17.20;1.00;;;;;;20679377;28;20104;-42
2023/09/13 19:24:44;;;;;;;4.20;1.25;;;17.20;1.00;;;;;;20676739;28;20038;-43
2023/09/13 19:34:47;;;;;;;3.55;1.15;;;17.20;1.00;;;;;;20678357;28;20034;-43
2023/09/13 19:44:48;;;;;;;6.40;1.45;;;17.20;1.00;;;;;;20677092;28;20052;-42
2023/09/13 19:54:48;;;;;;;3.30;1.30;;;17.10;1.00;;;;;;20675578;28;20557;-42
2023/09/13 20:04:49;;;;;;;4.18;1.40;;;17.00;1.00;;;;;;20674033;28;20502;-42
2023/09/13 20:14:49;;;;;;;6.47;1.20;;;16.80;1.00;;;;;;20674224;28;20046;-43
2023/09/13 20:24:50;;;;;;;4.57;1.10;;;16.60;1.00;;;;;;20675796;28;20042;-43
2023/09/13 20:34:55;;;;;;;7.25;1.73;;;16.40;1.00;;;;;;20674672;28;20476;-42
2023/09/13 20:44:55;;;;;;;6.80;1.52;;;16.20;1.00;;;;;;20671560;28;20030;-42
2023/09/13 20:54:56;;;;;;;6.20;1.25;;;16.10;1.00;;;;;;20670953;28;20058;-42
2023/09/13 21:04:57;;;;;;;4.85;1.90;;;15.90;1.00;;;;;;20671855;28;20042;-42
2023/09/13 21:14:58;;;;;;;6.30;1.73;;;15.70;1.00;;;;;;20668816;28;20405;-43
2023/09/13 21:25:00;;;;;;;3.75;1.52;;;15.40;1.00;;;;;;20668841;28;20049;-42
2023/09/13 21:35:00;;;;;;;5.32;1.70;;;15.30;1.00;;;;;;20671335;28;20069;-42
2023/09/13 21:45:01;;;;;;;5.45;1.60;;;15.10;1.00;;;;;;20666926;28;20470;-42
2023/09/13 21:55:01;;;;;;;6.35;1.75;;;14.90;3.00;;;;;;20665246;28;20073;-42
2023/09/13 22:05:03;;;;;;;5.78;1.70;;;14.80;14.00;;;;;;20668664;28;20041;-42
2023/09/13 22:15:04;;;;;;;5.68;1.60;;;14.70;15.50;;;;;;20666191;28;20053;-42
2023/09/13 22:25:07;;;;;;;5.18;1.60;;;14.50;23.70;;;;;;20677146;28;20038;-42
2023/09/13 22:35:08;;;;;;;3.95;1.40;;;14.50;29.20;;;;;;20665022;28;20057;-42
2023/09/13 22:45:09;;;;;;;5.33;1.80;;;14.50;28.00;;;;;;20664005;28;20042;-42
2023/09/13 22:55:09;;;;;;;5.43;2.30;;;14.40;39.10;;;;;;20663359;28;20046;-42
2023/09/13 23:05:10;;;;;;;6.32;1.92;;;14.50;66.10;;;;;;20665546;28;20457;-42
2023/09/13 23:15:10;;;;;;;5.70;1.80;;;14.60;82.60;;;;;;20661137;28;20099;-42
2023/09/13 23:25:11;;;;;;;5.35;1.88;;;14.70;94.00;;;;;;20662631;28;20042;-42
2023/09/13 23:35:12;;;;;;;5.30;2.03;;;14.70;96.20;;;;;;20667397;28;20045;-42
2023/09/13 23:45:12;;;;;;;5.70;1.73;;;14.60;95.60;;;;;;20677771;28;20528;-42
2023/09/13 23:55:13;;;;;;;4.97;1.83;;;14.60;95.30;;;;;;20674243;28;20204;-42
